Time;durP1;ratioP1;P1;durP2;ratioP2;P2;SDS_P1;SDS_P2;PMS_P1;PMS_P2;Temp;Humidity;BMP_temperature;BMP_pressure;BME280_temperature;BME280_humidity;BME280_pressure;Samples;Min_cycle;Max_cycle;Signal;HPM_P1;HPM_P2
2023/11/14 00:12:26;;;;;;;18.60;11.30;;;;;;;5.93;88.67;97052.91;435146;1257;99266;-39
2023/11/14 00:22:30;;;;;;;9.40;7.00;;;;;;;6.17;89.29;97045.69;435109;1255;107930;-41
2023/11/14 00:32:34;;;;;;;8.40;5.50;;;;;;;6.44;89.81;97068.92;435241;1253;99382;-40
2023/11/14 00:42:39;;;;;;;9.10;6.70;;;;;;;6.61;90.25;97067.27;434948;1254;454088;-43
2023/11/14 00:52:46;;;;;;;5.80;4.60;;;;;;;6.82;91.33;97059.83;435139;1253;107178;-40
2023/11/14 01:12:59;;;;;;;5.70;4.30;;;;;;;7.24;92.45;96939.50;435147;1252;109855;-40
2023/11/14 01:23:03;;;;;;;8.00;4.40;;;;;;;7.35;92.26;96933.20;435146;1257;98018;-40
2023/11/14 01:33:07;;;;;;;7.10;4.60;;;;;;;7.43;92.54;96977.27;435137;1267;110658;-40
2023/11/14 01:43:11;;;;;;;6.20;3.40;;;;;;;7.49;92.91;96980.90;435132;1252;108332;-41
2023/11/14 01:53:15;;;;;;;4.50;3.30;;;;;;;7.53;93.19;97017.95;435277;1257;98009;-41
2023/11/14 02:03:19;;;;;;;8.20;3.50;;;;;;;7.63;93.67;97040.11;435081;1257;108134;-39
2023/11/14 02:13:27;;;;;;;3.40;3.10;;;;;;;7.70;93.82;97035.06;436019;1252;99221;-40
2023/11/14 02:23:35;;;;;;;2.80;2.50;;;;;;;7.78;93.82;97039.76;435433;1250;110660;-40
2023/11/14 02:33:43;;;;;;;2.60;1.90;;;;;;;7.93;93.83;97051.20;435187;1250;107518;-41
2023/11/14 02:43:46;;;;;;;3.50;2.30;;;;;;;8.07;93.53;97056.27;435282;1254;99349;-41
2023/11/14 02:53:52;;;;;;;3.60;1.70;;;;;;;8.01;93.59;97061.42;435358;1249;108789;-40
2023/11/14 03:03:57;;;;;;;4.30;1.50;;;;;;;8.00;93.98;97070.79;435365;1255;99336;-39
2023/11/14 03:14:01;;;;;;;2.20;1.60;;;;;;;8.06;94.16;97066.83;435188;1250;111948;-41
2023/11/14 03:24:09;;;;;;;6.30;2.10;;;;;;;8.08;94.34;97086.25;435155;1254;108295;-39
2023/11/14 03:34:12;;;;;;;3.50;2.10;;;;;;;8.06;94.43;97105.97;435423;1254;99208;-41
2023/11/14 03:44:16;;;;;;;4.40;2.20;;;;;;;8.11;94.43;97121.54;435317;1250;106936;-41
2023/11/14 03:54:20;;;;;;;9.40;3.40;;;;;;;8.20;94.32;97118.02;435367;1253;99686;-39
2023/11/14 04:04:27;;;;;;;9.40;2.60;;;;;;;8.28;94.27;97118.73;435236;1256;112026;-40
2023/11/14 04:14:31;;;;;;;4.60;1.70;;;;;;;8.31;94.22;97134.61;435248;1249;107185;-40
2023/11/14 04:24:34;;;;;;;5.30;1.70;;;;;;;8.25;94.50;97150.24;435217;1254;99224;-40
2023/11/14 04:34:38;;;;;;;5.20;2.00;;;;;;;8.29;94.43;97164.14;435269;1249;109281;-40
2023/11/14 04:44:41;;;;;;;4.60;1.40;;;;;;;8.33;94.25;97184.36;435343;1253;99206;-40
2023/11/14 04:54:49;;;;;;;12.30;1.80;;;;;;;8.36;94.30;97204.41;435309;1254;112198;-41
2023/11/14 05:04:53;;;;;;;6.30;1.10;;;;;;;8.38;94.29;97220.98;435187;1264;107245;-41
2023/11/14 05:14:56;;;;;;;6.80;1.50;;;;;;;8.39;94.31;97231.20;435148;1254;99380;-41
2023/11/14 05:25:00;;;;;;;5.80;1.90;;;;;;;8.32;94.02;97251.92;435225;1255;107731;-41
2023/11/14 05:55:15;;;;;;;5.10;2.10;;;;;;;8.20;93.95;97291.95;435311;1250;108509;-40
2023/11/14 06:05:20;;;;;;;5.00;2.30;;;;;;;8.26;94.20;97303.14;435297;1250;99256;-40
2023/11/14 06:15:24;;;;;;;5.10;2.10;;;;;;;8.34;94.06;97314.68;435268;1251;108021;-41
2023/11/14 06:25:28;;;;;;;5.10;2.50;;;;;;;8.40;94.25;97329.86;435352;1250;99207;-38
2023/11/14 06:35:32;;;;;;;3.30;2.20;;;;;;;8.43;94.13;97338.44;435357;1253;111351;-39
2023/11/14 06:45:36;;;;;;;3.20;1.60;;;;;;;8.49;93.92;97346.98;435066;1254;107023;-39
2023/11/14 07:05:44;;;;;;;2.20;1.30;;;;;;;8.62;93.47;97365.41;435182;1250;107363;-40
2023/11/14 07:15:48;;;;;;;6.00;2.80;;;;;;;8.66;93.40;97377.46;435170;1250;99234;-41
2023/11/14 07:25:52;;;;;;;4.90;1.90;;;;;;;8.59;93.10;97367.39;435447;1254;111910;-40
2023/11/14 07:35:56;;;;;;;6.30;1.90;;;;;;;8.71;92.86;97364.71;435397;1250;108223;-40
2023/11/14 07:46:00;;;;;;;20.10;5.00;;;;;;;8.86;92.56;97359.80;435324;1255;99849;-39
2023/11/14 07:56:03;;;;;;;13.10;3.90;;;;;;;8.95;92.16;97362.98;435292;1255;109393;-40
2023/11/14 08:06:07;;;;;;;7.20;3.00;;;;;;;9.11;91.68;97370.05;435456;1250;98834;-41
2023/11/14 08:16:12;;;;;;;7.50;2.90;;;;;;;9.37;91.78;97381.75;435175;1255;110883;-39
2023/11/14 08:26:15;;;;;;;12.20;4.10;;;;;;;9.55;90.41;97385.17;435438;1253;108600;-39
2023/11/14 08:56:31;;;;;;;7.50;3.00;;;;;;;10.36;87.93;97376.26;435442;1255;98805;-40
2023/11/14 09:06:35;;;;;;;7.70;3.80;;;;;;;10.28;87.59;97385.95;435261;1250;111749;-38
2023/11/14 09:16:39;;;;;;;14.90;3.30;;;;;;;10.18;86.84;97406.48;435209;1250;106630;-40
2023/11/14 09:26:44;;;;;;;7.80;3.30;;;;;;;10.21;86.55;97417.86;435348;1254;98007;-39
2023/11/14 09:36:51;;;;;;;13.30;3.30;;;;;;;10.26;85.81;97407.49;435295;1254;106681;-40
2023/11/14 09:46:56;;;;;;;12.00;2.60;;;;;;;10.33;85.03;97422.11;435257;1254;99246;-39
2023/11/14 09:57:04;;;;;;;7.20;2.80;;;;;;;10.50;83.54;97419.34;435382;1249;112320;-40
2023/11/14 10:07:08;;;;;;;7.00;2.20;;;;;;;10.64;82.10;97421.98;435332;1255;108836;-40
2023/11/14 10:17:17;;;;;;;13.00;5.00;;;;;;;11.08;81.61;97411.20;435476;1249;99237;-40
2023/11/14 10:37:32;;;;;;;10.80;2.30;;;;;;;10.91;80.34;97411.12;435257;1254;99377;-40
2023/11/14 10:47:41;;;;;;;7.80;2.60;;;;;;;10.92;79.95;97400.23;435394;1250;111915;-40
2023/11/14 10:57:47;;;;;;;14.40;3.40;;;;;;;11.14;80.01;97392.01;435329;1250;107012;-40
2023/11/14 11:07:51;;;;;;;13.80;3.00;;;;;;;11.16;79.50;97418.42;435270;1251;100056;-39
2023/11/14 11:17:59;;;;;;;13.00;4.00;;;;;;;11.22;78.73;97407.35;435262;1255;107617;-40
2023/11/14 11:28:39;;;;;;;11.80;3.60;;;;;;;11.00;79.09;97408.91;435240;1254;99218;-40
2023/11/14 11:38:51;;;;;;;7.70;2.90;;;;;;;10.78;79.82;97409.91;435305;1255;110869;-39
2023/11/14 11:48:55;;;;;;;10.70;4.30;;;;;;;10.61;80.55;97395.95;435243;1254;107276;-39
2023/11/14 11:58:59;;;;;;;8.80;3.80;;;;;;;10.66;81.25;97387.98;435357;1249;99208;-40
2023/11/14 12:09:06;;;;;;;8.30;3.00;;;;;;;10.86;81.53;97392.16;435288;1253;109522;-41
2023/11/14 12:19:09;;;;;;;7.50;2.40;;;;;;;10.87;81.45;97388.79;435381;1255;99216;-41
2023/11/14 12:29:13;;;;;;;10.70;2.60;;;;;;;10.59;81.68;97372.90;435291;1254;111967;-39
2023/11/14 12:39:19;;;;;;;13.10;3.50;;;;;;;10.45;81.94;97396.12;435042;1255;353285;-41
2023/11/14 12:49:27;;;;;;;7.90;2.40;;;;;;;10.38;81.73;97378.52;435399;1254;99314;-39
2023/11/14 12:59:31;;;;;;;13.90;4.50;;;;;;;10.45;81.55;97378.41;435301;1263;108486;-39
2023/11/14 13:09:35;;;;;;;10.50;3.50;;;;;;;10.51;81.20;97403.06;435242;1249;99383;-40
2023/11/14 13:19:40;;;;;;;11.80;3.70;;;;;;;10.50;80.67;97417.39;435241;1254;113018;-40
2023/11/14 13:29:44;;;;;;;13.80;4.70;;;;;;;10.43;80.86;97417.61;435291;1255;107550;-39
2023/11/14 13:49:51;;;;;;;8.80;3.00;;;;;;;10.21;80.32;97395.30;435722;1253;108536;-40
2023/11/14 13:59:55;;;;;;;13.60;4.70;;;;;;;10.07;80.43;97379.58;435483;1251;99218;-39
2023/11/14 14:20:07;;;;;;;10.10;3.40;;;;;;;9.96;80.18;97365.55;435340;1256;108170;-40
2023/11/14 14:30:14;;;;;;;9.60;4.30;;;;;;;9.82;80.22;97357.53;435450;1253;99316;-40
2023/11/14 14:40:19;;;;;;;17.60;4.20;;;;;;;9.57;80.48;97361.50;435197;1264;108677;-40
2023/11/14 15:00:30;;;;;;;17.20;6.50;;;;;;;9.42;80.80;97364.33;435126;1257;112113;-40
2023/11/14 15:10:33;;;;;;;20.90;8.90;;;;;;;9.35;81.01;97359.59;435239;1257;109089;-40
2023/11/14 15:20:40;;;;;;;23.80;8.60;;;;;;;9.23;81.15;97348.33;435111;1257;99218;-41
2023/11/14 15:40:49;;;;;;;25.40;10.30;;;;;;;9.28;81.08;97359.39;435225;1256;98014;-42
2023/11/14 16:01:00;;;;;;;24.90;9.10;;;;;;;9.25;81.08;97363.73;435330;1256;108366;-39
2023/11/14 16:11:03;;;;;;;23.50;8.80;;;;;;;9.23;80.95;97374.54;434983;1257;99215;-41
2023/11/14 16:21:07;;;;;;;25.80;10.70;;;;;;;9.20;81.07;97378.77;435105;1265;107680;-41
2023/11/14 16:31:11;;;;;;;24.50;8.90;;;;;;;9.09;81.13;97380.48;435243;1257;99211;-40
2023/11/14 16:41:15;;;;;;;21.90;7.30;;;;;;;9.04;80.94;97384.34;435211;1251;112943;-40
2023/11/14 16:51:26;;;;;;;27.70;8.70;;;;;;;9.05;81.01;97377.23;435243;1251;107980;-41
2023/11/14 17:01:30;;;;;;;32.80;8.70;;;;;;;9.07;81.24;97376.19;435236;1251;99355;-43
2023/11/14 17:11:34;;;;;;;21.60;8.70;;;;;;;9.12;81.24;97357.98;435211;1255;108641;-41
2023/11/14 17:21:38;;;;;;;14.50;6.00;;;;;;;9.28;81.10;97352.95;435136;1256;99689;-40
2023/11/14 17:41:45;;;;;;;16.00;6.60;;;;;;;9.42;81.01;97368.55;435121;1256;108352;-41
2023/11/14 18:01:55;;;;;;;19.50;7.60;;;;;;;9.47;80.45;97338.41;435089;1257;107660;-41
2023/11/14 18:12:01;;;;;;;34.10;11.60;;;;;;;9.57;80.15;97322.70;435088;1256;99245;-39
2023/11/14 18:22:05;;;;;;;22.30;8.40;;;;;;;9.60;80.06;97318.80;435247;1251;112028;-40
2023/11/14 18:32:09;;;;;;;27.90;10.30;;;;;;;9.60;79.76;97323.14;435085;1258;108538;-41
2023/11/14 18:42:13;;;;;;;15.00;4.80;;;;;;;9.69;79.52;97330.59;435039;1257;99366;-41
2023/11/14 18:52:17;;;;;;;20.10;7.00;;;;;;;9.66;79.44;97322.70;435060;1267;108472;-40
2023/11/14 19:02:21;;;;;;;29.60;9.10;;;;;;;9.55;79.39;97311.72;435046;1251;99502;-41
2023/11/14 19:12:29;;;;;;;18.60;7.50;;;;;;;9.59;79.39;97303.23;435095;1257;112580;-41
2023/11/14 19:22:32;;;;;;;21.30;7.70;;;;;;;9.60;79.42;97313.90;435208;1251;107654;-40
2023/11/14 19:32:56;;;;;;;17.30;6.70;;;;;;;9.56;79.48;97305.38;435278;1257;98021;-40
2023/11/14 19:43:02;;;;;;;17.60;6.00;;;;;;;9.61;79.49;97293.80;435067;1251;108603;-39
2023/11/14 19:53:06;;;;;;;24.60;9.60;;;;;;;9.64;79.63;97282.67;435175;1257;98016;-40
2023/11/14 20:03:10;;;;;;;14.40;7.20;;;;;;;9.56;79.78;97286.55;435192;1255;111943;-41
2023/11/14 20:13:16;;;;;;;19.20;6.50;;;;;;;9.53;79.92;97293.48;435132;1255;107931;-40
2023/11/14 20:23:20;;;;;;;17.90;5.80;;;;;;;9.55;79.92;97289.60;435217;1256;97932;-40
2023/11/14 20:33:24;;;;;;;19.50;7.10;;;;;;;9.55;79.97;97287.17;435187;1256;109495;-40
2023/11/14 20:43:28;;;;;;;18.20;7.30;;;;;;;9.47;80.08;97278.37;435223;1252;99224;-41
2023/11/14 20:53:31;;;;;;;17.80;6.50;;;;;;;9.48;80.08;97274.79;435144;1251;112917;-41
2023/11/14 21:03:35;;;;;;;15.10;5.80;;;;;;;9.53;80.14;97266.43;435118;1251;107884;-40
2023/11/14 21:13:40;;;;;;;13.90;5.60;;;;;;;9.52;80.18;97267.58;435283;1251;100815;-41
2023/11/14 21:23:44;;;;;;;10.50;4.40;;;;;;;9.50;80.25;97269.58;435013;1255;108432;-40
2023/11/14 21:33:49;;;;;;;16.40;3.80;;;;;;;9.42;80.58;97257.60;435120;1256;98337;-41
2023/11/14 21:53:57;;;;;;;15.70;4.80;;;;;;;9.26;81.11;97241.69;435044;1252;107849;-41
2023/11/14 22:04:03;;;;;;;12.20;4.30;;;;;;;9.30;81.09;97237.64;435075;1257;98964;-41
2023/11/14 22:14:07;;;;;;;13.20;4.60;;;;;;;9.38;81.14;97233.03;435093;1255;107336;-40
2023/11/14 22:24:11;;;;;;;10.00;4.30;;;;;;;9.40;81.32;97232.30;435151;1251;99253;-41
2023/11/14 22:34:14;;;;;;;9.10;4.30;;;;;;;9.32;81.19;97230.27;435348;1251;110255;-41
2023/11/14 22:44:18;;;;;;;14.70;4.10;;;;;;;9.27;81.24;97229.08;435139;1255;108609;-40
2023/11/14 22:54:22;;;;;;;16.40;4.10;;;;;;;9.31;81.34;97227.89;435244;1255;98569;-40
2023/11/14 23:04:26;;;;;;;13.50;4.30;;;;;;;9.31;81.52;97221.34;435132;1252;107977;-40
2023/11/14 23:14:29;;;;;;;13.10;4.10;;;;;;;9.21;81.59;97216.02;435313;1251;99233;-41
2023/11/14 23:24:32;;;;;;;17.40;4.40;;;;;;;9.07;81.61;97212.71;435132;1252;111622;-40
2023/11/14 23:34:36;;;;;;;11.10;3.80;;;;;;;8.95;81.78;97197.64;435128;1251;108723;-42
2023/11/14 23:44:40;;;;;;;14.70;7.00;;;;;;;8.88;82.14;97195.60;435097;1252;98073;-41
